sensor_id;sensor_type;location;lat;lon;timestamp;pressure;altitude;pressure_sealevel;temperature;humidity
5062;BME280;2351;50.812;12.872;2022-08-07T00:02:15;98850.75;;;11.83;61.90
5062;BME280;2351;50.812;12.872;2022-08-07T00:04:46;98846.50;;;11.81;62.25
5062;BME280;2351;50.812;12.872;2022-08-07T00:07:18;98850.25;;;11.78;62.35
5062;BME280;2351;50.812;12.872;2022-08-07T00:09:49;98842.53;;;11.75;62.37
5062;BME280;2351;50.812;12.872;2022-08-07T00:12:21;98843.63;;;11.72;62.37
5062;BME280;2351;50.812;12.872;2022-08-07T00:14:52;98842.88;;;11.70;62.61
5062;BME280;2351;50.812;12.872;2022-08-07T00:17:25;98841.31;;;11.68;62.90
5062;BME280;2351;50.812;12.872;2022-08-07T00:19:57;98843.34;;;11.64;62.96
5062;BME280;2351;50.812;12.872;2022-08-07T00:22:29;98836.34;;;11.63;63.11
5062;BME280;2351;50.812;12.872;2022-08-07T00:25:00;98841.41;;;11.55;63.03
5062;BME280;2351;50.812;12.872;2022-08-07T00:27:32;98841.88;;;11.49;63.44
5062;BME280;2351;50.812;12.872;2022-08-07T00:30:04;98835.84;;;11.47;63.14
5062;BME280;2351;50.812;12.872;2022-08-07T00:32:37;98831.72;;;11.42;63.27
5062;BME280;2351;50.812;12.872;2022-08-07T00:35:09;98837.25;;;11.39;63.60
5062;BME280;2351;50.812;12.872;2022-08-07T00:37:41;98826.06;;;11.36;63.67
5062;BME280;2351;50.812;12.872;2022-08-07T00:40:14;98831.56;;;11.33;63.86
5062;BME280;2351;50.812;12.872;2022-08-07T00:42:45;98824.81;;;11.28;64.05
5062;BME280;2351;50.812;12.872;2022-08-07T00:45:17;98826.72;;;11.26;64.21
5062;BME280;2351;50.812;12.872;2022-08-07T00:47:52;98833.13;;;11.24;64.05
5062;BME280;2351;50.812;12.872;2022-08-07T00:50:23;98825.53;;;11.19;64.38
5062;BME280;2351;50.812;12.872;2022-08-07T00:52:55;98826.56;;;11.17;64.42
5062;BME280;2351;50.812;12.872;2022-08-07T00:55:27;98824.19;;;11.13;64.60
5062;BME280;2351;50.812;12.872;2022-08-07T00:57:58;98823.66;;;11.08;64.40
5062;BME280;2351;50.812;12.872;2022-08-07T01:00:30;98828.34;;;11.05;64.76
5062;BME280;2351;50.812;12.872;2022-08-07T01:03:03;98827.72;;;11.01;64.94
5062;BME280;2351;50.812;12.872;2022-08-07T01:05:35;98822.66;;;10.98;64.66
5062;BME280;2351;50.812;12.872;2022-08-07T01:08:07;98821.09;;;10.95;64.93
5062;BME280;2351;50.812;12.872;2022-08-07T01:10:39;98830.94;;;10.93;64.88
5062;BME280;2351;50.812;12.872;2022-08-07T01:13:12;98826.22;;;10.85;64.67
5062;BME280;2351;50.812;12.872;2022-08-07T01:15:45;98826.88;;;10.76;65.02
5062;BME280;2351;50.812;12.872;2022-08-07T01:18:19;98822.75;;;10.72;65.15
5062;BME280;2351;50.812;12.872;2022-08-07T01:23:27;98819.63;;;10.67;65.40
5062;BME280;2351;50.812;12.872;2022-08-07T01:25:59;98827.66;;;10.65;65.44
5062;BME280;2351;50.812;12.872;2022-08-07T01:28:32;98823.31;;;10.64;65.66
5062;BME280;2351;50.812;12.872;2022-08-07T01:31:04;98818.25;;;10.61;65.75
5062;BME280;2351;50.812;12.872;2022-08-07T01:33:37;98821.84;;;10.60;65.69
5062;BME280;2351;50.812;12.872;2022-08-07T01:36:09;98822.19;;;10.55;65.94
5062;BME280;2351;50.812;12.872;2022-08-07T01:38:43;98821.56;;;10.52;65.81
5062;BME280;2351;50.812;12.872;2022-08-07T01:41:15;98819.97;;;10.49;65.74
5062;BME280;2351;50.812;12.872;2022-08-07T01:43:49;98816.69;;;10.46;66.19
5062;BME280;2351;50.812;12.872;2022-08-07T01:46:21;98815.00;;;10.45;66.31
5062;BME280;2351;50.812;12.872;2022-08-07T01:48:52;98818.63;;;10.44;66.24
5062;BME280;2351;50.812;12.872;2022-08-07T01:51:24;98823.16;;;10.42;66.48
5062;BME280;2351;50.812;12.872;2022-08-07T01:54:00;98822.34;;;10.41;66.33
5062;BME280;2351;50.812;12.872;2022-08-07T01:56:37;98819.88;;;10.38;66.71
5062;BME280;2351;50.812;12.872;2022-08-07T01:59:15;98824.56;;;10.34;66.73
5062;BME280;2351;50.812;12.872;2022-08-07T02:01:53;98819.34;;;10.33;66.48
5062;BME280;2351;50.812;12.872;2022-08-07T02:04:31;98820.50;;;10.29;66.92
5062;BME280;2351;50.812;12.872;2022-08-07T02:07:05;98826.88;;;10.26;66.97
5062;BME280;2351;50.812;12.872;2022-08-07T02:09:40;98818.19;;;10.24;66.98
5062;BME280;2351;50.812;12.872;2022-08-07T02:12:13;98822.88;;;10.20;67.21
5062;BME280;2351;50.812;12.872;2022-08-07T02:14:51;98826.47;;;10.19;67.43
5062;BME280;2351;50.812;12.872;2022-08-07T02:17:25;98819.69;;;10.15;67.50
5062;BME280;2351;50.812;12.872;2022-08-07T02:19:58;98828.72;;;10.13;67.46
5062;BME280;2351;50.812;12.872;2022-08-07T02:22:32;98829.66;;;10.12;67.51
5062;BME280;2351;50.812;12.872;2022-08-07T02:25:08;98827.09;;;10.10;67.74
5062;BME280;2351;50.812;12.872;2022-08-07T02:27:41;98824.69;;;10.07;67.48
5062;BME280;2351;50.812;12.872;2022-08-07T02:30:14;98821.28;;;10.05;67.68
5062;BME280;2351;50.812;12.872;2022-08-07T02:32:47;98819.09;;;9.99;67.71
5062;BME280;2351;50.812;12.872;2022-08-07T02:35:19;98827.25;;;9.95;67.68
5062;BME280;2351;50.812;12.872;2022-08-07T02:37:52;98828.41;;;9.91;67.62
5062;BME280;2351;50.812;12.872;2022-08-07T02:40:28;98811.91;;;9.88;68.02
5062;BME280;2351;50.812;12.872;2022-08-07T02:43:01;98819.94;;;9.86;67.82
5062;BME280;2351;50.812;12.872;2022-08-07T02:45:36;98819.19;;;9.84;68.22
5062;BME280;2351;50.812;12.872;2022-08-07T02:48:09;98808.94;;;9.79;68.19
5062;BME280;2351;50.812;12.872;2022-08-07T02:50:42;98809.16;;;9.76;68.36
5062;BME280;2351;50.812;12.872;2022-08-07T02:53:18;98804.19;;;9.72;68.18
5062;BME280;2351;50.812;12.872;2022-08-07T02:55:54;98812.31;;;9.69;68.45
5062;BME280;2351;50.812;12.872;2022-08-07T02:58:27;98809.16;;;9.63;68.47
5062;BME280;2351;50.812;12.872;2022-08-07T03:01:01;98804.94;;;9.61;68.79
5062;BME280;2351;50.812;12.872;2022-08-07T03:03:34;98813.81;;;9.60;68.68
5062;BME280;2351;50.812;12.872;2022-08-07T03:06:07;98809.59;;;9.57;68.75
5062;BME280;2351;50.812;12.872;2022-08-07T03:08:40;98806.81;;;9.59;69.22
5062;BME280;2351;50.812;12.872;2022-08-07T03:11:13;98804.31;;;9.57;69.60
5062;BME280;2351;50.812;12.872;2022-08-07T03:13:45;98801.88;;;9.54;69.46
5062;BME280;2351;50.812;12.872;2022-08-07T03:16:17;98799.22;;;9.54;69.37
5062;BME280;2351;50.812;12.872;2022-08-07T03:18:49;98797.53;;;9.53;69.47
5062;BME280;2351;50.812;12.872;2022-08-07T03:21:22;98796.03;;;9.49;69.82
5062;BME280;2351;50.812;12.872;2022-08-07T03:23:56;98790.97;;;9.46;69.65
5062;BME280;2351;50.812;12.872;2022-08-07T03:26:31;98793.06;;;9.41;69.85
5062;BME280;2351;50.812;12.872;2022-08-07T03:29:05;98793.19;;;9.39;69.88
5062;BME280;2351;50.812;12.872;2022-08-07T03:31:38;98790.53;;;9.39;70.01
5062;BME280;2351;50.812;12.872;2022-08-07T03:34:11;98795.81;;;9.39;70.21
5062;BME280;2351;50.812;12.872;2022-08-07T03:36:45;98796.78;;;9.38;70.13
5062;BME280;2351;50.812;12.872;2022-08-07T03:39:19;98792.63;;;9.34;70.23
5062;BME280;2351;50.812;12.872;2022-08-07T03:41:52;98793.69;;;9.31;70.59
5062;BME280;2351;50.812;12.872;2022-08-07T03:44:24;98792.00;;;9.30;70.89
5062;BME280;2351;50.812;12.872;2022-08-07T03:46:56;98790.31;;;9.29;71.00
5062;BME280;2351;50.812;12.872;2022-08-07T03:49:29;98800.88;;;9.29;70.84
5062;BME280;2351;50.812;12.872;2022-08-07T03:52:01;98801.94;;;9.27;71.14
5062;BME280;2351;50.812;12.872;2022-08-07T03:54:34;98807.22;;;9.27;71.11
5062;BME280;2351;50.812;12.872;2022-08-07T03:57:07;98810.81;;;9.26;71.19
5062;BME280;2351;50.812;12.872;2022-08-07T03:59:40;98805.63;;;9.24;71.21
5062;BME280;2351;50.812;12.872;2022-08-07T04:02:12;98810.06;;;9.24;71.45
5062;BME280;2351;50.812;12.872;2022-08-07T04:04:44;98809.31;;;9.22;71.35
5062;BME280;2351;50.812;12.872;2022-08-07T04:07:17;98812.03;;;9.20;71.77
5062;BME280;2351;50.812;12.872;2022-08-07T04:09:49;98800.75;;;9.18;72.09
5062;BME280;2351;50.812;12.872;2022-08-07T04:12:23;98796.19;;;9.20;71.73
5062;BME280;2351;50.812;12.872;2022-08-07T04:14:56;98798.84;;;9.20;72.28
5062;BME280;2351;50.812;12.872;2022-08-07T04:17:28;98800.44;;;9.23;72.10
5062;BME280;2351;50.812;12.872;2022-08-07T04:20:00;98797.50;;;9.27;72.37
5062;BME280;2351;50.812;12.872;2022-08-07T04:22:32;98802.56;;;9.30;72.65
5062;BME280;2351;50.812;12.872;2022-08-07T04:25:04;98801.63;;;9.31;72.66
5062;BME280;2351;50.812;12.872;2022-08-07T04:27:37;98814.09;;;9.29;72.38
5062;BME280;2351;50.812;12.872;2022-08-07T04:30:10;98811.00;;;9.23;72.37
5062;BME280;2351;50.812;12.872;2022-08-07T04:32:44;98812.03;;;9.20;73.08
5062;BME280;2351;50.812;12.872;2022-08-07T04:35:16;98814.50;;;9.23;73.02
5062;BME280;2351;50.812;12.872;2022-08-07T04:37:47;98809.75;;;9.28;73.25
5062;BME280;2351;50.812;12.872;2022-08-07T04:40:20;98816.41;;;9.34;73.40
5062;BME280;2351;50.812;12.872;2022-08-07T04:42:53;98809.16;;;9.38;73.59
5062;BME280;2351;50.812;12.872;2022-08-07T04:45:28;98809.78;;;9.41;73.67
5062;BME280;2351;50.812;12.872;2022-08-07T04:48:07;98812.00;;;9.47;73.80
5062;BME280;2351;50.812;12.872;2022-08-07T04:50:44;98801.00;;;9.54;74.10
5062;BME280;2351;50.812;12.872;2022-08-07T04:53:20;98811.03;;;9.61;74.33
5062;BME280;2351;50.812;12.872;2022-08-07T04:55:58;98813.91;;;9.71;74.46
5062;BME280;2351;50.812;12.872;2022-08-07T04:58:38;98819.84;;;9.88;74.37
5062;BME280;2351;50.812;12.872;2022-08-07T05:01:15;98816.34;;;10.00;74.83
5062;BME280;2351;50.812;12.872;2022-08-07T05:03:51;98815.56;;;10.11;74.92
5062;BME280;2351;50.812;12.872;2022-08-07T05:06:31;98822.88;;;10.20;74.84
5062;BME280;2351;50.812;12.872;2022-08-07T05:09:09;98820.50;;;10.29;74.92
5062;BME280;2351;50.812;12.872;2022-08-07T05:11:43;98823.38;;;10.38;75.12
5062;BME280;2351;50.812;12.872;2022-08-07T05:14:19;98819.25;;;10.47;75.24
5062;BME280;2351;50.812;12.872;2022-08-07T05:16:53;98820.50;;;10.54;75.51
5062;BME280;2351;50.812;12.872;2022-08-07T05:19:33;98818.88;;;10.65;75.31
5062;BME280;2351;50.812;12.872;2022-08-07T05:22:07;98811.94;;;10.75;75.24
5062;BME280;2351;50.812;12.872;2022-08-07T05:24:40;98819.09;;;10.86;75.58
5062;BME280;2351;50.812;12.872;2022-08-07T05:27:14;98809.31;;;10.99;75.45
5062;BME280;2351;50.812;12.872;2022-08-07T05:29:48;98811.75;;;11.14;75.68
5062;BME280;2351;50.812;12.872;2022-08-07T05:32:22;98815.06;;;11.29;75.81
5062;BME280;2351;50.812;12.872;2022-08-07T05:34:55;98820.41;;;11.40;75.63
5062;BME280;2351;50.812;12.872;2022-08-07T05:37:28;98817.06;;;11.50;75.54
5062;BME280;2351;50.812;12.872;2022-08-07T05:40:01;98815.50;;;11.58;75.39
5062;BME280;2351;50.812;12.872;2022-08-07T05:42:33;98817.94;;;11.73;75.36
5062;BME280;2351;50.812;12.872;2022-08-07T05:45:08;98816.53;;;11.92;75.34
5062;BME280;2351;50.812;12.872;2022-08-07T05:47:40;98809.69;;;12.12;75.28
5062;BME280;2351;50.812;12.872;2022-08-07T05:50:13;98816.78;;;12.45;75.40
5062;BME280;2351;50.812;12.872;2022-08-07T05:52:45;98819.03;;;13.05;74.91
5062;BME280;2351;50.812;12.872;2022-08-07T05:55:16;98808.00;;;13.64;74.53
5062;BME280;2351;50.812;12.872;2022-08-07T05:57:49;98819.44;;;14.07;74.28
5062;BME280;2351;50.812;12.872;2022-08-07T06:00:23;98810.47;;;14.49;74.14
5062;BME280;2351;50.812;12.872;2022-08-07T06:02:57;98811.16;;;15.01;73.57
5062;BME280;2351;50.812;12.872;2022-08-07T06:05:30;98812.56;;;15.25;72.94
5062;BME280;2351;50.812;12.872;2022-08-07T06:08:02;98807.22;;;15.45;72.44
5062;BME280;2351;50.812;12.872;2022-08-07T06:10:34;98813.19;;;15.86;72.03
5062;BME280;2351;50.812;12.872;2022-08-07T06:13:06;98807.41;;;16.29;70.24
5062;BME280;2351;50.812;12.872;2022-08-07T06:15:39;98808.69;;;16.52;70.09
5062;BME280;2351;50.812;12.872;2022-08-07T06:18:13;98798.72;;;16.91;69.73
5062;BME280;2351;50.812;12.872;2022-08-07T06:20:45;98801.69;;;16.97;69.41
5062;BME280;2351;50.812;12.872;2022-08-07T06:23:17;98791.47;;;16.83;68.62
5062;BME280;2351;50.812;12.872;2022-08-07T06:25:49;98800.38;;;16.55;67.34
5062;BME280;2351;50.812;12.872;2022-08-07T06:28:21;98803.44;;;16.33;67.00
5062;BME280;2351;50.812;12.872;2022-08-07T06:30:55;98783.94;;;16.22;66.57
5062;BME280;2351;50.812;12.872;2022-08-07T06:33:27;98786.41;;;16.06;65.63
5062;BME280;2351;50.812;12.872;2022-08-07T06:35:58;98788.88;;;15.89;65.03
5062;BME280;2351;50.812;12.872;2022-08-07T06:38:30;98797.44;;;15.83;64.23
5062;BME280;2351;50.812;12.872;2022-08-07T06:41:03;98796.59;;;15.92;64.40
5062;BME280;2351;50.812;12.872;2022-08-07T06:43:37;98799.09;;;15.94;62.18
5062;BME280;2351;50.812;12.872;2022-08-07T06:46:12;98798.41;;;15.82;60.19
5062;BME280;2351;50.812;12.872;2022-08-07T06:48:44;98802.50;;;15.86;59.87
5062;BME280;2351;50.812;12.872;2022-08-07T06:51:18;98805.16;;;15.96;59.35
5062;BME280;2351;50.812;12.872;2022-08-07T06:53:51;98804.81;;;16.09;60.02
5062;BME280;2351;50.812;12.872;2022-08-07T06:56:24;98797.00;;;16.25;60.41
5062;BME280;2351;50.812;12.872;2022-08-07T06:59:12;98795.00;;;16.37;59.05
5062;BME280;2351;50.812;12.872;2022-08-07T07:01:46;98794.78;;;16.49;58.46
5062;BME280;2351;50.812;12.872;2022-08-07T07:04:18;98793.59;;;16.61;58.94
5062;BME280;2351;50.812;12.872;2022-08-07T07:06:50;98792.53;;;16.72;58.96
5062;BME280;2351;50.812;12.872;2022-08-07T07:09:23;98786.97;;;16.83;58.29
5062;BME280;2351;50.812;12.872;2022-08-07T07:12:21;98789.41;;;16.95;56.83
5062;BME280;2351;50.812;12.872;2022-08-07T07:14:59;98795.09;;;17.10;57.11
5062;BME280;2351;50.812;12.872;2022-08-07T07:17:36;98790.53;;;17.20;56.57
5062;BME280;2351;50.812;12.872;2022-08-07T07:20:14;98783.75;;;17.34;55.55
5062;BME280;2351;50.812;12.872;2022-08-07T07:22:47;98789.00;;;17.44;55.85
5062;BME280;2351;50.812;12.872;2022-08-07T07:25:19;98785.34;;;17.45;52.69
5062;BME280;2351;50.812;12.872;2022-08-07T07:27:55;98783.59;;;17.54;52.01
5062;BME280;2351;50.812;12.872;2022-08-07T07:30:31;98784.00;;;17.67;52.33
5062;BME280;2351;50.812;12.872;2022-08-07T07:33:07;98774.38;;;17.83;49.63
5062;BME280;2351;50.812;12.872;2022-08-07T07:35:41;98774.28;;;17.92;49.96
5062;BME280;2351;50.812;12.872;2022-08-07T07:38:14;98777.84;;;18.01;49.27
5062;BME280;2351;50.812;12.872;2022-08-07T07:40:49;98770.56;;;18.12;49.37
5062;BME280;2351;50.812;12.872;2022-08-07T07:43:22;98766.44;;;18.26;50.11
5062;BME280;2351;50.812;12.872;2022-08-07T07:45:55;98766.28;;;18.35;47.32
5062;BME280;2351;50.812;12.872;2022-08-07T07:48:29;98763.28;;;18.39;47.21
5062;BME280;2351;50.812;12.872;2022-08-07T07:51:02;98760.31;;;18.50;47.91
5062;BME280;2351;50.812;12.872;2022-08-07T07:53:38;98753.47;;;18.64;48.02
5062;BME280;2351;50.812;12.872;2022-08-07T07:56:12;98746.97;;;18.83;47.78
5062;BME280;2351;50.812;12.872;2022-08-07T07:58:44;98749.84;;;18.98;47.42
5062;BME280;2351;50.812;12.872;2022-08-07T08:01:18;98753.53;;;19.05;45.22
5062;BME280;2351;50.812;12.872;2022-08-07T08:03:55;98752.03;;;19.11;45.55
5062;BME280;2351;50.812;12.872;2022-08-07T08:06:28;98748.50;;;19.27;45.82
5062;BME280;2351;50.812;12.872;2022-08-07T08:09:03;98754.72;;;19.36;45.52
5062;BME280;2351;50.812;12.872;2022-08-07T08:11:36;98745.81;;;19.44;45.11
5062;BME280;2351;50.812;12.872;2022-08-07T08:14:08;98744.13;;;19.42;44.06
5062;BME280;2351;50.812;12.872;2022-08-07T08:16:42;98752.34;;;19.49;42.64
5062;BME280;2351;50.812;12.872;2022-08-07T08:19:19;98747.63;;;19.60;41.87
5062;BME280;2351;50.812;12.872;2022-08-07T08:21:56;98751.88;;;19.37;39.34
5062;BME280;2351;50.812;12.872;2022-08-07T08:24:47;98751.53;;;19.32;40.62
5062;BME280;2351;50.812;12.872;2022-08-07T08:27:41;98745.69;;;19.29;40.78
5062;BME280;2351;50.812;12.872;2022-08-07T08:30:13;98750.34;;;19.35;40.30
5062;BME280;2351;50.812;12.872;2022-08-07T08:32:48;98748.00;;;19.40;40.13
5062;BME280;2351;50.812;12.872;2022-08-07T08:35:24;98747.28;;;19.54;40.42
5062;BME280;2351;50.812;12.872;2022-08-07T08:37:58;98749.44;;;19.67;39.72
5062;BME280;2351;50.812;12.872;2022-08-07T08:40:34;98749.94;;;19.88;39.08
5062;BME280;2351;50.812;12.872;2022-08-07T08:43:10;98744.19;;;19.99;38.44
5062;BME280;2351;50.812;12.872;2022-08-07T08:45:48;98748.94;;;19.97;38.50
5062;BME280;2351;50.812;12.872;2022-08-07T08:48:26;98753.59;;;20.03;37.75
5062;BME280;2351;50.812;12.872;2022-08-07T08:51:07;98745.66;;;20.10;38.05
5062;BME280;2351;50.812;12.872;2022-08-07T08:53:53;98747.84;;;20.14;37.59
5062;BME280;2351;50.812;12.872;2022-08-07T08:56:30;98742.06;;;20.26;37.78
5062;BME280;2351;50.812;12.872;2022-08-07T08:59:14;98736.97;;;20.39;36.95
5062;BME280;2351;50.812;12.872;2022-08-07T09:01:55;98732.91;;;20.43;36.76
5062;BME280;2351;50.812;12.872;2022-08-07T09:04:38;98732.81;;;20.60;35.39
5062;BME280;2351;50.812;12.872;2022-08-07T09:07:17;98731.03;;;20.75;34.94
5062;BME280;2351;50.812;12.872;2022-08-07T09:09:55;98725.25;;;20.87;34.59
5062;BME280;2351;50.812;12.872;2022-08-07T09:12:42;98737.03;;;20.86;34.82
5062;BME280;2351;50.812;12.872;2022-08-07T09:15:30;98732.50;;;20.86;35.28
5062;BME280;2351;50.812;12.872;2022-08-07T09:18:15;98727.06;;;20.95;35.27
5062;BME280;2351;50.812;12.872;2022-08-07T09:20:56;98724.59;;;21.08;35.65
5062;BME280;2351;50.812;12.872;2022-08-07T09:23:45;98727.13;;;21.25;35.67
5062;BME280;2351;50.812;12.872;2022-08-07T09:26:31;98728.91;;;21.32;35.18
5062;BME280;2351;50.812;12.872;2022-08-07T09:29:12;98722.13;;;21.21;33.99
5062;BME280;2351;50.812;12.872;2022-08-07T09:31:55;98710.22;;;21.16;34.54
5062;BME280;2351;50.812;12.872;2022-08-07T09:34:35;98715.44;;;21.17;34.97
5062;BME280;2351;50.812;12.872;2022-08-07T09:37:23;98712.63;;;21.11;35.32
5062;BME280;2351;50.812;12.872;2022-08-07T09:40:05;98708.50;;;21.00;35.09
5062;BME280;2351;50.812;12.872;2022-08-07T09:42:48;98701.94;;;20.79;34.43
5062;BME280;2351;50.812;12.872;2022-08-07T09:45:34;98698.66;;;20.69;35.37
5062;BME280;2351;50.812;12.872;2022-08-07T09:48:14;98693.97;;;20.62;35.64
5062;BME280;2351;50.812;12.872;2022-08-07T09:50:55;98689.22;;;20.73;35.62
5062;BME280;2351;50.812;12.872;2022-08-07T09:53:33;98687.97;;;20.84;35.86
5062;BME280;2351;50.812;12.872;2022-08-07T09:56:38;98686.31;;;20.98;35.82
5062;BME280;2351;50.812;12.872;2022-08-07T09:59:32;98686.38;;;21.13;35.74
5062;BME280;2351;50.812;12.872;2022-08-07T10:02:24;98676.97;;;21.09;35.07
5062;BME280;2351;50.812;12.872;2022-08-07T10:05:15;98677.38;;;21.05;35.22
5062;BME280;2351;50.812;12.872;2022-08-07T10:07:58;98668.69;;;21.18;35.34
5062;BME280;2351;50.812;12.872;2022-08-07T10:10:39;98663.06;;;21.05;35.36
5062;BME280;2351;50.812;12.872;2022-08-07T10:13:38;98668.47;;;21.20;35.63
5062;BME280;2351;50.812;12.872;2022-08-07T10:16:23;98660.97;;;21.30;34.04
5062;BME280;2351;50.812;12.872;2022-08-07T10:19:25;98661.44;;;21.19;34.89
5062;BME280;2351;50.812;12.872;2022-08-07T10:22:25;98653.53;;;21.32;34.04
5062;BME280;2351;50.812;12.872;2022-08-07T10:25:19;98650.19;;;21.30;33.84
5062;BME280;2351;50.812;12.872;2022-08-07T10:31:13;98643.25;;;21.36;33.66
5062;BME280;2351;50.812;12.872;2022-08-07T10:33:56;98633.50;;;21.50;33.67
5062;BME280;2351;50.812;12.872;2022-08-07T10:36:42;98623.16;;;21.62;33.83
5062;BME280;2351;50.812;12.872;2022-08-07T10:39:27;98623.59;;;21.65;32.98
5062;BME280;2351;50.812;12.872;2022-08-07T10:42:13;98619.28;;;21.56;33.13
5062;BME280;2351;50.812;12.872;2022-08-07T10:44:55;98615.56;;;21.57;33.40
5062;BME280;2351;50.812;12.872;2022-08-07T10:47:38;98626.81;;;21.76;34.23
5062;BME280;2351;50.812;12.872;2022-08-07T10:50:16;98615.56;;;21.57;32.72
5062;BME280;2351;50.812;12.872;2022-08-07T10:52:57;98618.47;;;21.41;33.99
5062;BME280;2351;50.812;12.872;2022-08-07T10:55:40;98613.38;;;21.46;33.56
5062;BME280;2351;50.812;12.872;2022-08-07T10:58:19;98612.78;;;21.35;32.73
5062;BME280;2351;50.812;12.872;2022-08-07T11:00:58;98601.75;;;21.30;32.91
5062;BME280;2351;50.812;12.872;2022-08-07T11:03:38;98598.69;;;21.63;33.30
5062;BME280;2351;50.812;12.872;2022-08-07T11:06:17;98591.09;;;22.04;33.67
5062;BME280;2351;50.812;12.872;2022-08-07T11:08:55;98585.09;;;22.45;33.35
5062;BME280;2351;50.812;12.872;2022-08-07T11:11:33;98579.97;;;22.79;32.90
5062;BME280;2351;50.812;12.872;2022-08-07T11:14:09;98586.38;;;23.06;32.69
5062;BME280;2351;50.812;12.872;2022-08-07T11:16:47;98581.41;;;23.03;30.36
5062;BME280;2351;50.812;12.872;2022-08-07T11:19:25;98583.66;;;22.99;30.95
5062;BME280;2351;50.812;12.872;2022-08-07T11:22:06;98573.88;;;22.98;30.81
5062;BME280;2351;50.812;12.872;2022-08-07T11:24:45;98568.38;;;23.13;31.34
5062;BME280;2351;50.812;12.872;2022-08-07T11:27:23;98564.97;;;23.26;30.42
5062;BME280;2351;50.812;12.872;2022-08-07T11:30:00;98565.81;;;23.27;30.42
5062;BME280;2351;50.812;12.872;2022-08-07T11:32:37;98562.19;;;23.20;29.90
5062;BME280;2351;50.812;12.872;2022-08-07T11:35:16;98555.59;;;22.94;30.56
5062;BME280;2351;50.812;12.872;2022-08-07T11:38:07;98556.78;;;22.84;30.63
5062;BME280;2351;50.812;12.872;2022-08-07T11:40:46;98559.94;;;22.88;30.59
5062;BME280;2351;50.812;12.872;2022-08-07T11:43:21;98551.44;;;22.91;30.47
5062;BME280;2351;50.812;12.872;2022-08-07T11:46:10;98537.22;;;23.11;30.73
5062;BME280;2351;50.812;12.872;2022-08-07T11:48:58;98534.13;;;23.14;29.35
5062;BME280;2351;50.812;12.872;2022-08-07T11:51:41;98534.06;;;23.07;30.48
5062;BME280;2351;50.812;12.872;2022-08-07T11:54:32;98526.59;;;23.02;30.23
5062;BME280;2351;50.812;12.872;2022-08-07T11:57:15;98530.41;;;23.15;30.73
5062;BME280;2351;50.812;12.872;2022-08-07T12:00:07;98532.66;;;22.76;30.06
5062;BME280;2351;50.812;12.872;2022-08-07T12:02:50;98534.16;;;22.85;30.57
5062;BME280;2351;50.812;12.872;2022-08-07T12:05:34;98540.28;;;23.01;30.50
5062;BME280;2351;50.812;12.872;2022-08-07T12:08:15;98539.22;;;23.30;30.07
5062;BME280;2351;50.812;12.872;2022-08-07T12:10:51;98518.44;;;23.31;29.82
5062;BME280;2351;50.812;12.872;2022-08-07T12:13:26;98517.34;;;23.60;30.12
5062;BME280;2351;50.812;12.872;2022-08-07T12:16:03;98523.00;;;23.86;29.69
5062;BME280;2351;50.812;12.872;2022-08-07T12:18:40;98523.28;;;23.98;28.67
5062;BME280;2351;50.812;12.872;2022-08-07T12:21:22;98517.66;;;23.99;29.00
5062;BME280;2351;50.812;12.872;2022-08-07T12:24:03;98515.72;;;23.80;28.45
5062;BME280;2351;50.812;12.872;2022-08-07T12:26:41;98513.13;;;23.44;28.93
5062;BME280;2351;50.812;12.872;2022-08-07T12:29:16;98517.94;;;23.56;29.74
5062;BME280;2351;50.812;12.872;2022-08-07T12:31:56;98510.09;;;23.74;29.01
5062;BME280;2351;50.812;12.872;2022-08-07T12:34:31;98505.53;;;23.82;29.17
5062;BME280;2351;50.812;12.872;2022-08-07T12:37:05;98511.56;;;23.84;28.88
5062;BME280;2351;50.812;12.872;2022-08-07T12:39:39;98511.22;;;24.00;28.71
5062;BME280;2351;50.812;12.872;2022-08-07T12:42:15;98509.34;;;24.21;28.77
5062;BME280;2351;50.812;12.872;2022-08-07T12:44:49;98508.53;;;24.27;27.78
5062;BME280;2351;50.812;12.872;2022-08-07T12:47:27;98508.50;;;24.07;27.65
5062;BME280;2351;50.812;12.872;2022-08-07T12:50:11;98500.97;;;23.82;27.81
5062;BME280;2351;50.812;12.872;2022-08-07T12:52:48;98499.72;;;23.78;27.75
5062;BME280;2351;50.812;12.872;2022-08-07T12:55:27;98496.47;;;24.03;27.90
5062;BME280;2351;50.812;12.872;2022-08-07T12:58:01;98501.06;;;24.29;28.00
5062;BME280;2351;50.812;12.872;2022-08-07T13:00:44;98496.69;;;24.28;27.71
5062;BME280;2351;50.812;12.872;2022-08-07T13:06:45;98494.59;;;24.64;27.07
5062;BME280;2351;50.812;12.872;2022-08-07T13:09:29;98488.72;;;24.94;27.67
5062;BME280;2351;50.812;12.872;2022-08-07T13:12:10;98476.84;;;25.02;27.38
5062;BME280;2351;50.812;12.872;2022-08-07T13:14:56;98478.94;;;25.00;27.29
5062;BME280;2351;50.812;12.872;2022-08-07T13:17:33;98483.56;;;24.52;26.77
5062;BME280;2351;50.812;12.872;2022-08-07T13:20:14;98471.28;;;24.43;27.45
5062;BME280;2351;50.812;12.872;2022-08-07T13:22:49;98467.53;;;24.44;27.47
5062;BME280;2351;50.812;12.872;2022-08-07T13:25:26;98469.22;;;24.45;27.35
5062;BME280;2351;50.812;12.872;2022-08-07T13:28:02;98461.72;;;24.20;27.66
5062;BME280;2351;50.812;12.872;2022-08-07T13:30:37;98456.75;;;24.30;27.27
5062;BME280;2351;50.812;12.872;2022-08-07T13:33:15;98455.94;;;24.03;28.15
5062;BME280;2351;50.812;12.872;2022-08-07T13:35:54;98448.00;;;24.01;28.56
5062;BME280;2351;50.812;12.872;2022-08-07T13:38:32;98448.22;;;24.13;27.72
5062;BME280;2351;50.812;12.872;2022-08-07T13:41:14;98452.59;;;24.41;27.97
5062;BME280;2351;50.812;12.872;2022-08-07T13:43:48;98445.91;;;24.71;27.72
5062;BME280;2351;50.812;12.872;2022-08-07T13:46:29;98445.78;;;25.04;27.03
5062;BME280;2351;50.812;12.872;2022-08-07T13:49:02;98437.25;;;25.07;26.69
5062;BME280;2351;50.812;12.872;2022-08-07T13:51:36;98435.91;;;25.30;26.45
5062;BME280;2351;50.812;12.872;2022-08-07T13:54:11;98429.31;;;25.58;26.80
5062;BME280;2351;50.812;12.872;2022-08-07T13:56:44;98425.28;;;25.67;25.44
5062;BME280;2351;50.812;12.872;2022-08-07T13:59:19;98421.75;;;25.67;25.46
5062;BME280;2351;50.812;12.872;2022-08-07T14:01:53;98416.06;;;25.43;25.98
5062;BME280;2351;50.812;12.872;2022-08-07T14:04:26;98412.47;;;25.10;26.08
5062;BME280;2351;50.812;12.872;2022-08-07T14:06:58;98416.66;;;25.00;26.40
5062;BME280;2351;50.812;12.872;2022-08-07T14:09:36;98410.69;;;25.30;26.63
5062;BME280;2351;50.812;12.872;2022-08-07T14:12:17;98419.47;;;25.25;26.06